sensor_id;sensor_type;location;lat;lon;timestamp;pressure;altitude;pressure_sealevel;temperature;humidity
50105;BME280;47690;39.202;-77.198;2022-11-15T00:01:41;101346.91;;;30.86;9.03
50105;BME280;47690;39.202;-77.198;2022-11-15T00:06:22;101343.38;;;30.85;9.04
50105;BME280;47690;39.202;-77.198;2022-11-15T00:11:18;101352.78;;;30.89;9.22
50105;BME280;47690;39.202;-77.198;2022-11-15T00:16:23;101347.59;;;30.88;9.01
50105;BME280;47690;39.202;-77.198;2022-11-15T00:20:35;101351.09;;;30.67;8.90
50105;BME280;47690;39.202;-77.198;2022-11-15T00:25:31;101337.19;;;30.63;9.11
50105;BME280;47690;39.202;-77.198;2022-11-15T00:29:10;101346.50;;;30.36;9.19
50105;BME280;47690;39.202;-77.198;2022-11-15T00:33:35;101336.56;;;30.38;9.58
50105;BME280;47690;39.202;-77.198;2022-11-15T00:42:33;101346.31;;;30.05;9.19
50105;BME280;47690;39.202;-77.198;2022-11-15T00:46:46;101354.34;;;29.82;9.19
50105;BME280;47690;39.202;-77.198;2022-11-15T00:50:43;101357.25;;;29.68;9.75
50105;BME280;47690;39.202;-77.198;2022-11-15T00:55:20;101372.56;;;29.64;9.74
50105;BME280;47690;39.202;-77.198;2022-11-15T01:00:11;101377.75;;;29.54;9.32
50105;BME280;47690;39.202;-77.198;2022-11-15T01:03:50;101371.69;;;29.41;9.20
50105;BME280;47690;39.202;-77.198;2022-11-15T01:08:12;101383.03;;;29.31;9.93
50105;BME280;47690;39.202;-77.198;2022-11-15T01:11:51;101388.69;;;29.38;9.41
50105;BME280;47690;39.202;-77.198;2022-11-15T01:15:57;101389.28;;;29.42;9.52
50105;BME280;47690;39.202;-77.198;2022-11-15T01:20:16;101386.50;;;29.32;9.74
50105;BME280;47690;39.202;-77.198;2022-11-15T01:23:40;101389.50;;;29.16;9.95
50105;BME280;47690;39.202;-77.198;2022-11-15T01:27:07;101401.63;;;30.23;8.93
50105;BME280;47690;39.202;-77.198;2022-11-15T01:31:04;101405.03;;;29.56;9.71
50105;BME280;47690;39.202;-77.198;2022-11-15T01:35:33;101394.56;;;29.30;9.23
50105;BME280;47690;39.202;-77.198;2022-11-15T01:40:34;101413.75;;;29.23;9.99
50105;BME280;47690;39.202;-77.198;2022-11-15T01:47:53;101413.81;;;28.98;9.53
50105;BME280;47690;39.202;-77.198;2022-11-15T01:51:32;101403.81;;;28.77;10.17
50105;BME280;47690;39.202;-77.198;2022-11-15T01:55:02;101412.97;;;28.73;10.12
50105;BME280;47690;39.202;-77.198;2022-11-15T01:58:36;101416.78;;;28.69;9.92
50105;BME280;47690;39.202;-77.198;2022-11-15T02:02:14;101412.81;;;28.63;9.96
50105;BME280;47690;39.202;-77.198;2022-11-15T02:06:20;101424.81;;;28.81;10.36
50105;BME280;47690;39.202;-77.198;2022-11-15T02:10:20;101424.19;;;28.77;9.90
50105;BME280;47690;39.202;-77.198;2022-11-15T02:15:21;101430.13;;;28.81;9.90
50105;BME280;47690;39.202;-77.198;2022-11-15T02:31:47;101445.00;;;28.70;10.43
50105;BME280;47690;39.202;-77.198;2022-11-15T02:35:31;101445.16;;;28.31;10.42
50105;BME280;47690;39.202;-77.198;2022-11-15T02:39:30;101455.13;;;28.28;10.05
50105;BME280;47690;39.202;-77.198;2022-11-15T02:43:07;101442.59;;;28.30;10.01
50105;BME280;47690;39.202;-77.198;2022-11-15T02:50:38;101451.94;;;28.22;10.42
50105;BME280;47690;39.202;-77.198;2022-11-15T02:54:15;101455.00;;;28.16;10.46
50105;BME280;47690;39.202;-77.198;2022-11-15T03:05:52;101438.13;;;28.30;10.11
50105;BME280;47690;39.202;-77.198;2022-11-15T03:09:48;101429.91;;;28.22;10.60
50105;BME280;47690;39.202;-77.198;2022-11-15T03:18:02;101422.81;;;28.09;10.29
50105;BME280;47690;39.202;-77.198;2022-11-15T03:21:45;101429.19;;;28.07;10.13
50105;BME280;47690;39.202;-77.198;2022-11-15T03:25:30;101418.78;;;28.04;10.13
50105;BME280;47690;39.202;-77.198;2022-11-15T03:29:31;101417.28;;;28.13;10.54
50105;BME280;47690;39.202;-77.198;2022-11-15T03:33:07;101409.69;;;28.08;10.16
50105;BME280;47690;39.202;-77.198;2022-11-15T03:36:56;101415.00;;;27.95;10.11
50105;BME280;47690;39.202;-77.198;2022-11-15T03:40:12;101434.94;;;27.88;10.49
50105;BME280;47690;39.202;-77.198;2022-11-15T03:47:06;101419.03;;;27.75;10.06
50105;BME280;47690;39.202;-77.198;2022-11-15T03:50:23;101422.13;;;27.68;10.22
50105;BME280;47690;39.202;-77.198;2022-11-15T03:55:09;101424.22;;;27.76;10.62
50105;BME280;47690;39.202;-77.198;2022-11-15T03:58:40;101430.81;;;27.71;10.27
50105;BME280;47690;39.202;-77.198;2022-11-15T04:02:19;101433.34;;;27.72;10.58
50105;BME280;47690;39.202;-77.198;2022-11-15T04:05:40;101431.13;;;27.66;10.34
50105;BME280;47690;39.202;-77.198;2022-11-15T04:09:22;101422.56;;;27.62;10.22
50105;BME280;47690;39.202;-77.198;2022-11-15T04:12:41;101428.28;;;27.56;10.39
50105;BME280;47690;39.202;-77.198;2022-11-15T04:16:11;101420.09;;;27.59;10.82
50105;BME280;47690;39.202;-77.198;2022-11-15T04:19:39;101418.72;;;27.53;10.59
50105;BME280;47690;39.202;-77.198;2022-11-15T04:23:22;101408.97;;;27.54;10.51
50105;BME280;47690;39.202;-77.198;2022-11-15T04:27:15;101397.16;;;27.60;10.35
50105;BME280;47690;39.202;-77.198;2022-11-15T04:30:29;101386.00;;;27.54;10.66
50105;BME280;47690;39.202;-77.198;2022-11-15T04:34:00;101390.88;;;27.48;10.30
50105;BME280;47690;39.202;-77.198;2022-11-15T04:37:31;101404.31;;;27.45;10.45
50105;BME280;47690;39.202;-77.198;2022-11-15T04:40:55;101399.44;;;27.38;10.39
50105;BME280;47690;39.202;-77.198;2022-11-15T04:44:19;101409.09;;;27.39;10.35
50105;BME280;47690;39.202;-77.198;2022-11-15T04:47:47;101409.59;;;27.32;10.68
50105;BME280;47690;39.202;-77.198;2022-11-15T04:51:12;101411.09;;;27.36;10.76
50105;BME280;47690;39.202;-77.198;2022-11-15T04:54:44;101403.03;;;27.37;10.75
50105;BME280;47690;39.202;-77.198;2022-11-15T04:58:06;101408.72;;;27.31;10.80
50105;BME280;47690;39.202;-77.198;2022-11-15T05:02:29;101389.06;;;27.35;10.70
50105;BME280;47690;39.202;-77.198;2022-11-15T05:06:23;101383.47;;;27.27;10.49
50105;BME280;47690;39.202;-77.198;2022-11-15T05:09:53;101384.94;;;27.18;10.45
50105;BME280;47690;39.202;-77.198;2022-11-15T05:13:07;101384.84;;;27.20;10.94
50105;BME280;47690;39.202;-77.198;2022-11-15T05:16:24;101384.59;;;27.23;10.52
50105;BME280;47690;39.202;-77.198;2022-11-15T05:20:01;101396.69;;;27.40;10.34
50105;BME280;47690;39.202;-77.198;2022-11-15T05:23:34;101397.31;;;27.44;10.74
50105;BME280;47690;39.202;-77.198;2022-11-15T05:26:44;101403.66;;;27.41;10.56
50105;BME280;47690;39.202;-77.198;2022-11-15T05:30:11;101410.00;;;27.38;10.32
50105;BME280;47690;39.202;-77.198;2022-11-15T05:33:43;101411.19;;;27.21;10.68
50105;BME280;47690;39.202;-77.198;2022-11-15T05:37:13;101412.00;;;27.09;10.44
50105;BME280;47690;39.202;-77.198;2022-11-15T05:40:38;101408.06;;;27.02;10.73
50105;BME280;47690;39.202;-77.198;2022-11-15T05:45:12;101402.78;;;27.02;10.84
50105;BME280;47690;39.202;-77.198;2022-11-15T05:50:03;101410.41;;;27.06;11.12
50105;BME280;47690;39.202;-77.198;2022-11-15T05:53:48;101413.22;;;26.90;10.64
50105;BME280;47690;39.202;-77.198;2022-11-15T05:58:24;101415.56;;;26.95;10.86
50105;BME280;47690;39.202;-77.198;2022-11-15T06:01:47;101425.84;;;26.99;10.76
50105;BME280;47690;39.202;-77.198;2022-11-15T06:09:30;101415.50;;;27.22;10.49
50105;BME280;47690;39.202;-77.198;2022-11-15T06:12:46;101412.31;;;27.17;10.74
50105;BME280;47690;39.202;-77.198;2022-11-15T06:16:03;101411.78;;;26.84;10.64
50105;BME280;47690;39.202;-77.198;2022-11-15T06:19:24;101411.56;;;27.02;10.69
50105;BME280;47690;39.202;-77.198;2022-11-15T06:22:41;101409.13;;;26.99;10.51
50105;BME280;47690;39.202;-77.198;2022-11-15T06:31:02;101396.38;;;27.19;10.27
50105;BME280;47690;39.202;-77.198;2022-11-15T06:33:51;101392.00;;;27.05;10.52
50105;BME280;47690;39.202;-77.198;2022-11-15T06:36:44;101382.25;;;26.92;10.39
50105;BME280;47690;39.202;-77.198;2022-11-15T06:39:33;101393.47;;;26.96;10.30
50105;BME280;47690;39.202;-77.198;2022-11-15T06:42:23;101392.06;;;26.90;10.52
50105;BME280;47690;39.202;-77.198;2022-11-15T06:45:19;101388.38;;;26.93;10.34
50105;BME280;47690;39.202;-77.198;2022-11-15T06:48:15;101391.13;;;26.91;10.57
50105;BME280;47690;39.202;-77.198;2022-11-15T06:51:06;101377.41;;;26.71;10.57
50105;BME280;47690;39.202;-77.198;2022-11-15T06:53:59;101365.84;;;26.59;10.74
50105;BME280;47690;39.202;-77.198;2022-11-15T06:56:50;101374.78;;;26.71;10.89
50105;BME280;47690;39.202;-77.198;2022-11-15T06:59:40;101373.50;;;26.77;10.49
50105;BME280;47690;39.202;-77.198;2022-11-15T07:02:30;101384.41;;;26.85;10.43
50105;BME280;47690;39.202;-77.198;2022-11-15T07:05:23;101393.34;;;26.70;10.74
50105;BME280;47690;39.202;-77.198;2022-11-15T07:08:17;101397.28;;;26.77;10.77
50105;BME280;47690;39.202;-77.198;2022-11-15T07:11:08;101388.72;;;26.73;10.59
50105;BME280;47690;39.202;-77.198;2022-11-15T07:14:00;101371.78;;;26.63;10.65
50105;BME280;47690;39.202;-77.198;2022-11-15T07:16:49;101365.56;;;26.77;10.94
50105;BME280;47690;39.202;-77.198;2022-11-15T07:19:55;101372.16;;;27.64;10.56
50105;BME280;47690;39.202;-77.198;2022-11-15T07:22:46;101360.38;;;27.16;10.27
50105;BME280;47690;39.202;-77.198;2022-11-15T07:25:38;101360.16;;;26.93;10.45
50105;BME280;47690;39.202;-77.198;2022-11-15T07:28:31;101370.09;;;26.62;10.88
50105;BME280;47690;39.202;-77.198;2022-11-15T07:31:25;101353.41;;;26.75;10.59
50105;BME280;47690;39.202;-77.198;2022-11-15T07:34:19;101338.75;;;26.83;10.63
50105;BME280;47690;39.202;-77.198;2022-11-15T07:37:10;101364.03;;;26.60;10.59
50105;BME280;47690;39.202;-77.198;2022-11-15T07:40:00;101361.72;;;26.55;10.81
50105;BME280;47690;39.202;-77.198;2022-11-15T07:42:59;101369.00;;;26.52;10.91
50105;BME280;47690;39.202;-77.198;2022-11-15T07:45:50;101377.69;;;26.54;10.74
50105;BME280;47690;39.202;-77.198;2022-11-15T07:48:44;101404.31;;;26.64;10.72
50105;BME280;47690;39.202;-77.198;2022-11-15T07:51:34;101417.97;;;26.57;10.51
50105;BME280;47690;39.202;-77.198;2022-11-15T07:54:28;101407.56;;;26.54;11.13
50105;BME280;47690;39.202;-77.198;2022-11-15T07:57:22;101404.94;;;26.54;10.87
50105;BME280;47690;39.202;-77.198;2022-11-15T08:00:10;101411.56;;;26.47;10.94
50105;BME280;47690;39.202;-77.198;2022-11-15T08:03:10;101414.41;;;26.44;11.33
50105;BME280;47690;39.202;-77.198;2022-11-15T08:06:00;101399.84;;;26.51;10.92
50105;BME280;47690;39.202;-77.198;2022-11-15T08:08:53;101427.41;;;26.47;11.13
50105;BME280;47690;39.202;-77.198;2022-11-15T08:11:46;101408.78;;;26.91;10.69
50105;BME280;47690;39.202;-77.198;2022-11-15T08:14:36;101411.81;;;26.57;10.88
50105;BME280;47690;39.202;-77.198;2022-11-15T08:17:28;101462.31;;;26.52;10.91
50105;BME280;47690;39.202;-77.198;2022-11-15T08:20:20;101484.75;;;26.59;10.74
50105;BME280;47690;39.202;-77.198;2022-11-15T08:23:11;101465.25;;;26.48;10.81
50105;BME280;47690;39.202;-77.198;2022-11-15T08:26:15;101449.56;;;26.44;11.21
50105;BME280;47690;39.202;-77.198;2022-11-15T08:29:06;101436.50;;;26.43;11.05
50105;BME280;47690;39.202;-77.198;2022-11-15T08:31:59;101410.81;;;26.45;10.81
50105;BME280;47690;39.202;-77.198;2022-11-15T08:34:55;101394.97;;;26.45;10.88
50105;BME280;47690;39.202;-77.198;2022-11-15T08:37:47;101397.13;;;26.38;11.09
50105;BME280;47690;39.202;-77.198;2022-11-15T08:40:39;101397.81;;;26.27;10.95
50105;BME280;47690;39.202;-77.198;2022-11-15T08:43:36;101414.63;;;26.26;11.19
50105;BME280;47690;39.202;-77.198;2022-11-15T08:46:36;101422.00;;;26.21;11.26
50105;BME280;47690;39.202;-77.198;2022-11-15T08:49:31;101424.66;;;26.21;11.05
50105;BME280;47690;39.202;-77.198;2022-11-15T08:52:24;101421.59;;;26.27;11.27
50105;BME280;47690;39.202;-77.198;2022-11-15T08:55:16;101414.44;;;26.29;11.13
50105;BME280;47690;39.202;-77.198;2022-11-15T08:58:13;101405.28;;;26.35;11.05
50105;BME280;47690;39.202;-77.198;2022-11-15T09:01:13;101405.06;;;26.38;11.35
50105;BME280;47690;39.202;-77.198;2022-11-15T09:04:04;101418.53;;;26.48;10.82
50105;BME280;47690;39.202;-77.198;2022-11-15T09:06:58;101422.13;;;26.47;11.18
50105;BME280;47690;39.202;-77.198;2022-11-15T09:09:51;101433.84;;;26.70;11.04
50105;BME280;47690;39.202;-77.198;2022-11-15T09:12:42;101434.19;;;26.79;10.81
50105;BME280;47690;39.202;-77.198;2022-11-15T09:15:34;101435.03;;;26.79;10.88
50105;BME280;47690;39.202;-77.198;2022-11-15T09:18:32;101446.69;;;26.77;11.07
50105;BME280;47690;39.202;-77.198;2022-11-15T09:21:24;101447.09;;;26.83;10.73
50105;BME280;47690;39.202;-77.198;2022-11-15T09:24:15;101440.22;;;26.81;10.76
50105;BME280;47690;39.202;-77.198;2022-11-15T09:27:04;101428.50;;;26.85;10.62
50105;BME280;47690;39.202;-77.198;2022-11-15T09:30:04;101410.44;;;27.45;10.54
50105;BME280;47690;39.202;-77.198;2022-11-15T09:32:58;101410.44;;;27.97;10.60
50105;BME280;47690;39.202;-77.198;2022-11-15T09:35:51;101431.56;;;27.19;10.71
50105;BME280;47690;39.202;-77.198;2022-11-15T09:38:47;101438.84;;;27.03;10.65
50105;BME280;47690;39.202;-77.198;2022-11-15T09:49:00;101434.75;;;27.11;10.75
50105;BME280;47690;39.202;-77.198;2022-11-15T09:52:00;101426.16;;;26.95;10.93
50105;BME280;47690;39.202;-77.198;2022-11-15T09:54:36;101430.91;;;26.75;10.94
50105;BME280;47690;39.202;-77.198;2022-11-15T10:00:42;101436.53;;;26.83;11.05
50105;BME280;47690;39.202;-77.198;2022-11-15T10:03:30;101429.00;;;26.77;10.89
50105;BME280;47690;39.202;-77.198;2022-11-15T10:06:31;101445.72;;;26.78;11.04
50105;BME280;47690;39.202;-77.198;2022-11-15T10:09:33;101444.72;;;26.66;11.00
50105;BME280;47690;39.202;-77.198;2022-11-15T10:12:18;101450.84;;;26.66;10.89
50105;BME280;47690;39.202;-77.198;2022-11-15T10:15:02;101433.28;;;26.65;11.17
50105;BME280;47690;39.202;-77.198;2022-11-15T10:21:00;101425.97;;;26.56;11.30
50105;BME280;47690;39.202;-77.198;2022-11-15T10:23:38;101427.63;;;26.44;11.08
50105;BME280;47690;39.202;-77.198;2022-11-15T10:26:16;101433.38;;;26.36;11.31
50105;BME280;47690;39.202;-77.198;2022-11-15T10:28:55;101426.09;;;26.40;11.16
50105;BME280;47690;39.202;-77.198;2022-11-15T10:31:31;101425.34;;;26.38;11.23
50105;BME280;47690;39.202;-77.198;2022-11-15T10:34:13;101428.28;;;26.33;11.32
50105;BME280;47690;39.202;-77.198;2022-11-15T10:37:00;101435.84;;;26.39;11.59
50105;BME280;47690;39.202;-77.198;2022-11-15T10:39:34;101435.06;;;26.37;11.24
50105;BME280;47690;39.202;-77.198;2022-11-15T10:42:30;101439.88;;;26.45;11.59
50105;BME280;47690;39.202;-77.198;2022-11-15T10:45:36;101438.59;;;26.65;11.34
50105;BME280;47690;39.202;-77.198;2022-11-15T10:48:29;101431.91;;;26.59;11.09
50105;BME280;47690;39.202;-77.198;2022-11-15T10:55:36;101441.47;;;26.75;10.97
50105;BME280;47690;39.202;-77.198;2022-11-15T10:58:39;101450.41;;;26.87;11.19
50105;BME280;47690;39.202;-77.198;2022-11-15T11:01:45;101461.66;;;26.91;11.17
50105;BME280;47690;39.202;-77.198;2022-11-15T11:04:17;101471.50;;;26.74;10.84
50105;BME280;47690;39.202;-77.198;2022-11-15T11:07:08;101465.75;;;26.67;10.85
50105;BME280;47690;39.202;-77.198;2022-11-15T11:09:58;101467.41;;;26.41;11.23
50105;BME280;47690;39.202;-77.198;2022-11-15T11:12:33;101466.69;;;26.24;11.29
50105;BME280;47690;39.202;-77.198;2022-11-15T11:15:12;101485.53;;;26.18;11.54
50105;BME280;47690;39.202;-77.198;2022-11-15T11:20:49;101476.66;;;26.19;11.48
50105;BME280;47690;39.202;-77.198;2022-11-15T11:23:35;101473.88;;;26.22;11.53
50105;BME280;47690;39.202;-77.198;2022-11-15T11:40:10;101463.38;;;26.35;11.26
50105;BME280;47690;39.202;-77.198;2022-11-15T11:43:01;101460.00;;;26.33;11.16
50105;BME280;47690;39.202;-77.198;2022-11-15T11:48:49;101462.72;;;26.31;11.46
50105;BME280;47690;39.202;-77.198;2022-11-15T11:51:33;101460.44;;;26.40;11.35
50105;BME280;47690;39.202;-77.198;2022-11-15T11:59:36;101455.09;;;26.69;11.26
50105;BME280;47690;39.202;-77.198;2022-11-15T12:02:39;101450.53;;;26.71;11.54
50105;BME280;47690;39.202;-77.198;2022-11-15T12:05:27;101461.41;;;26.66;11.27
50105;BME280;47690;39.202;-77.198;2022-11-15T12:08:23;101454.66;;;26.62;11.33
50105;BME280;47690;39.202;-77.198;2022-11-15T12:11:26;101443.72;;;26.54;11.56
50105;BME280;47690;39.202;-77.198;2022-11-15T12:14:05;101440.13;;;26.55;11.10
50105;BME280;47690;39.202;-77.198;2022-11-15T12:16:43;101431.44;;;26.53;11.37
50105;BME280;47690;39.202;-77.198;2022-11-15T12:19:15;101432.31;;;26.53;11.37
50105;BME280;47690;39.202;-77.198;2022-11-15T12:22:04;101438.88;;;26.61;11.47
50105;BME280;47690;39.202;-77.198;2022-11-15T12:24:41;101436.53;;;26.83;11.23
50105;BME280;47690;39.202;-77.198;2022-11-15T12:27:40;101434.16;;;26.93;11.27
50105;BME280;47690;39.202;-77.198;2022-11-15T12:30:15;101429.94;;;26.91;11.17
50105;BME280;47690;39.202;-77.198;2022-11-15T12:33:00;101435.66;;;26.97;11.21
50105;BME280;47690;39.202;-77.198;2022-11-15T12:35:40;101434.50;;;27.02;11.02
50105;BME280;47690;39.202;-77.198;2022-11-15T12:41:40;101433.06;;;27.10;11.40
50105;BME280;47690;39.202;-77.198;2022-11-15T12:52:09;101441.97;;;27.22;11.53
50105;BME280;47690;39.202;-77.198;2022-11-15T13:00:00;101443.88;;;27.46;11.26
50105;BME280;47690;39.202;-77.198;2022-11-15T13:02:46;101453.69;;;27.59;11.25
50105;BME280;47690;39.202;-77.198;2022-11-15T13:08:01;101453.31;;;27.89;11.50
50105;BME280;47690;39.202;-77.198;2022-11-15T13:10:39;101461.09;;;27.79;10.96
50105;BME280;47690;39.202;-77.198;2022-11-15T13:13:44;101462.34;;;28.00;11.46
50105;BME280;47690;39.202;-77.198;2022-11-15T13:16:36;101456.91;;;28.01;11.02
50105;BME280;47690;39.202;-77.198;2022-11-15T13:19:19;101471.25;;;27.99;10.97
50105;BME280;47690;39.202;-77.198;2022-11-15T13:21:58;101461.91;;;28.06;11.41
50105;BME280;47690;39.202;-77.198;2022-11-15T13:24:49;101454.38;;;28.13;11.17
50105;BME280;47690;39.202;-77.198;2022-11-15T13:27:19;101445.69;;;28.11;10.96
50105;BME280;47690;39.202;-77.198;2022-11-15T13:29:52;101442.31;;;28.21;11.43
50105;BME280;47690;39.202;-77.198;2022-11-15T13:32:51;101441.06;;;28.76;10.94
50105;BME280;47690;39.202;-77.198;2022-11-15T13:35:30;101438.91;;;28.57;11.44
50105;BME280;47690;39.202;-77.198;2022-11-15T13:38:05;101424.19;;;28.53;10.74
50105;BME280;47690;39.202;-77.198;2022-11-15T13:40:37;101408.00;;;28.44;10.87
50105;BME280;47690;39.202;-77.198;2022-11-15T13:43:38;101395.38;;;28.72;11.37
50105;BME280;47690;39.202;-77.198;2022-11-15T13:46:23;101378.97;;;28.67;11.33
50105;BME280;47690;39.202;-77.198;2022-11-15T13:49:04;101356.22;;;28.76;10.80
50105;BME280;47690;39.202;-77.198;2022-11-15T13:57:40;101355.09;;;28.92;10.99
50105;BME280;47690;39.202;-77.198;2022-11-15T14:00:30;101388.97;;;28.99;10.87
50105;BME280;47690;39.202;-77.198;2022-11-15T14:03:21;101375.50;;;29.02;10.86
50105;BME280;47690;39.202;-77.198;2022-11-15T14:09:46;101388.78;;;29.37;11.24
50105;BME280;47690;39.202;-77.198;2022-11-15T14:12:52;101397.88;;;29.45;11.34
50105;BME280;47690;39.202;-77.198;2022-11-15T14:15:39;101404.53;;;29.51;10.96
50105;BME280;47690;39.202;-77.198;2022-11-15T14:18:40;101421.19;;;29.65;11.42
50105;BME280;47690;39.202;-77.198;2022-11-15T14:21:12;101438.69;;;29.67;11.03
50105;BME280;47690;39.202;-77.198;2022-11-15T14:23:44;101443.28;;;29.65;11.02
50105;BME280;47690;39.202;-77.198;2022-11-15T14:26:33;101432.91;;;29.85;11.08
50105;BME280;47690;39.202;-77.198;2022-11-15T14:32:18;101439.41;;;30.15;11.09
50105;BME280;47690;39.202;-77.198;2022-11-15T14:35:00;101461.16;;;30.20;11.00
50105;BME280;47690;39.202;-77.198;2022-11-15T14:37:34;101462.63;;;30.24;10.82
50105;BME280;47690;39.202;-77.198;2022-11-15T14:40:37;101436.81;;;30.48;11.04
50105;BME280;47690;39.202;-77.198;2022-11-15T14:43:14;101426.22;;;30.36;10.82
50105;BME280;47690;39.202;-77.198;2022-11-15T14:45:43;101433.50;;;30.34;10.93
50105;BME280;47690;39.202;-77.198;2022-11-15T14:48:14;101417.53;;;30.34;11.07
50105;BME280;47690;39.202;-77.198;2022-11-15T14:50:44;101418.47;;;30.45;10.85
50105;BME280;47690;39.202;-77.198;2022-11-15T14:53:16;101424.13;;;30.51;10.84
50105;BME280;47690;39.202;-77.198;2022-11-15T14:55:47;101430.63;;;30.59;11.17
50105;BME280;47690;39.202;-77.198;2022-11-15T14:58:19;101434.59;;;30.64;10.80
50105;BME280;47690;39.202;-77.198;2022-11-15T15:00:52;101434.38;;;30.67;10.94
50105;BME280;47690;39.202;-77.198;2022-11-15T15:03:29;101429.53;;;30.73;10.80
50105;BME280;47690;39.202;-77.198;2022-11-15T15:06:02;101425.97;;;30.84;10.77
50105;BME280;47690;39.202;-77.198;2022-11-15T15:08:34;101421.75;;;30.81;10.84
50105;BME280;47690;39.202;-77.198;2022-11-15T15:11:21;101426.06;;;30.93;10.87
50105;BME280;47690;39.202;-77.198;2022-11-15T15:14:36;101428.41;;;31.08;10.78
50105;BME280;47690;39.202;-77.198;2022-11-15T15:17:45;101423.22;;;31.28;10.84
50105;BME280;47690;39.202;-77.198;2022-11-15T15:28:52;101450.06;;;31.77;10.77
50105;BME280;47690;39.202;-77.198;2022-11-15T15:31:59;101435.03;;;31.66;10.58
50105;BME280;47690;39.202;-77.198;2022-11-15T15:35:15;101426.09;;;31.77;10.54
50105;BME280;47690;39.202;-77.198;2022-11-15T15:39:48;101417.25;;;31.98;10.89
50105;BME280;47690;39.202;-77.198;2022-11-15T15:42:32;101396.69;;;31.79;10.59
50105;BME280;47690;39.202;-77.198;2022-11-15T15:50:44;101395.38;;;32.04;10.46
50105;BME280;47690;39.202;-77.198;2022-11-15T15:53:39;101388.25;;;31.73;10.22
50105;BME280;47690;39.202;-77.198;2022-11-15T16:00:35;101349.66;;;31.89;10.47
50105;BME280;47690;39.202;-77.198;2022-11-15T16:03:34;101357.59;;;31.79;10.41
50105;BME280;47690;39.202;-77.198;2022-11-15T16:07:13;101366.19;;;32.02;10.82
50105;BME280;47690;39.202;-77.198;2022-11-15T16:10:32;101345.63;;;32.05;10.64
50105;BME280;47690;39.202;-77.198;2022-11-15T16:14:09;101327.50;;;32.28;10.57
50105;BME280;47690;39.202;-77.198;2022-11-15T16:17:53;101329.19;;;31.99;10.54
50105;BME280;47690;39.202;-77.198;2022-11-15T16:21:07;101323.56;;;32.02;10.38
50105;BME280;47690;39.202;-77.198;2022-11-15T16:24:31;101308.72;;;31.90;10.43
50105;BME280;47690;39.202;-77.198;2022-11-15T16:27:52;101310.97;;;32.05;10.29
50105;BME280;47690;39.202;-77.198;2022-11-15T16:31:24;101305.22;;;32.19;10.45
50105;BME280;47690;39.202;-77.198;2022-11-15T16:35:33;101294.97;;;32.34;10.62
50105;BME280;47690;39.202;-77.198;2022-11-15T16:38:20;101298.91;;;32.00;10.62
50105;BME280;47690;39.202;-77.198;2022-11-15T16:41:40;101294.41;;;32.11;10.25
50105;BME280;47690;39.202;-77.198;2022-11-15T16:45:02;101301.72;;;32.19;10.11
50105;BME280;47690;39.202;-77.198;2022-11-15T16:48:24;101312.63;;;32.25;10.61
50105;BME280;47690;39.202;-77.198;2022-11-15T16:51:12;101301.72;;;32.19;10.21
50105;BME280;47690;39.202;-77.198;2022-11-15T16:54:41;101299.31;;;32.25;10.25
50105;BME280;47690;39.202;-77.198;2022-11-15T16:57:31;101297.06;;;32.11;10.42
50105;BME280;47690;39.202;-77.198;2022-11-15T17:07:59;101243.09;;;32.48;10.59
50105;BME280;47690;39.202;-77.198;2022-11-15T17:11:21;101222.16;;;32.43;10.43
50105;BME280;47690;39.202;-77.198;2022-11-15T17:14:48;101177.69;;;32.34;10.41
50105;BME280;47690;39.202;-77.198;2022-11-15T17:17:52;101142.50;;;32.21;10.49
50105;BME280;47690;39.202;-77.198;2022-11-15T17:21:32;101130.06;;;32.87;10.42
50105;BME280;47690;39.202;-77.198;2022-11-15T17:24:20;101126.94;;;32.16;10.28
50105;BME280;47690;39.202;-77.198;2022-11-15T17:37:35;101111.16;;;33.08;9.66
50105;BME280;47690;39.202;-77.198;2022-11-15T17:40:48;101105.44;;;32.93;9.73
50105;BME280;47690;39.202;-77.198;2022-11-15T17:45:16;101069.59;;;33.24;10.08
50105;BME280;47690;39.202;-77.198;2022-11-15T17:49:32;101068.34;;;33.36;9.66
50105;BME280;47690;39.202;-77.198;2022-11-15T17:52:10;101079.97;;;33.27;9.70
50105;BME280;47690;39.202;-77.198;2022-11-15T17:55:25;101086.75;;;33.40;9.58
50105;BME280;47690;39.202;-77.198;2022-11-15T17:59:54;101063.13;;;33.89;9.39
50105;BME280;47690;39.202;-77.198;2022-11-15T18:03:08;101065.03;;;33.53;9.39
50105;BME280;47690;39.202;-77.198;2022-11-15T18:06:51;101089.75;;;33.18;10.03
50105;BME280;47690;39.202;-77.198;2022-11-15T18:10:28;101091.56;;;33.36;10.14
50105;BME280;47690;39.202;-77.198;2022-11-15T18:13:29;101092.25;;;33.20;9.63
50105;BME280;47690;39.202;-77.198;2022-11-15T18:16:13;101089.66;;;32.82;10.53
50105;BME280;47690;39.202;-77.198;2022-11-15T18:19:48;101062.66;;;33.13;10.27
50105;BME280;47690;39.202;-77.198;2022-11-15T18:22:39;101056.78;;;33.28;10.31
50105;BME280;47690;39.202;-77.198;2022-11-15T18:25:49;101057.31;;;33.31;9.83
50105;BME280;47690;39.202;-77.198;2022-11-15T18:29:12;101055.25;;;33.07;9.98
50105;BME280;47690;39.202;-77.198;2022-11-15T18:32:32;101043.72;;;33.87;9.82
50105;BME280;47690;39.202;-77.198;2022-11-15T18:35:36;101033.00;;;34.05;9.36
50105;BME280;47690;39.202;-77.198;2022-11-15T18:38:08;101015.66;;;33.83;10.08
50105;BME280;47690;39.202;-77.198;2022-11-15T18:40:39;100992.69;;;33.01;10.49
50105;BME280;47690;39.202;-77.198;2022-11-15T18:43:12;100981.91;;;32.93;10.19
50105;BME280;47690;39.202;-77.198;2022-11-15T18:45:43;100978.22;;;32.76;10.28
50105;BME280;47690;39.202;-77.198;2022-11-15T18:48:14;100950.84;;;32.74;10.61
50105;BME280;47690;39.202;-77.198;2022-11-15T18:50:45;100950.84;;;32.74;10.79